Terminal Aerodrome Forecast
Issued by NWS Wilmington, OH

Current Version | Previous Version | Graphics & Text | Print | Product List | Glossary On
Versions: 1 2 3 4 5 6 7 8 9 10 11 12 13 14 15 16 17 18 19 20 21 22
000
FTUS41 KILN 240900 AAA
TAFILN
TAF AMD
KILN 240924Z 2409/2506 30008KT 5SM HZ OVC009
     FM241100 26008KT P6SM OVC018
     FM241400 25011KT P6SM SCT025 BKN060
     FM241800 25012G20KT P6SM OVC025
     FM242300 26008KT P6SM OVC022=

USA.gov is the U.S. government's official web portal to all federal, state and local government web resources and services.